Terminal Aerodrome Forecast
Issued by NWS

Home | Current Version | Previous Version | Text Only | Print | Product List | Glossary Off
Versions: 1 2 3 4 5 6 7 8 9 10 11 12 13 14 15 16 17 18 19 20 21 22 23 24 25 26 27 28 29 30 31 32 33 34 35 36

000
FTUS43 KLOT 261500 AAC
TAFORD
TAF AMD
KORD 261554Z 2616/2718 36008KT P6SM BKN020 BKN050 BKN100
     FM261700 02008KT P6SM BKN025 BKN040
     FM262000 03007KT P6SM SCT040 BKN250
     FM270000 06006KT P6SM FEW150 BKN250
     FM270700 03006KT P6SM BKN070 PROB30 2712/2716 5SM TSRA
      BKN040CB=

USA.gov is the U.S. government's official web portal to all federal, state and local government web resources and services.